This is the latest recevied weather packets stored in our database for station/object LRCK. If no packets are shown the sender has not sent any weather packets the latest 10 day(s).
| Time | Temp. | Humidity | Pressure | Rain* | Wind** | Luminosity | Snow |
|---|---|---|---|---|---|---|---|
| 1777756697 | 3.89° C | 87% | 1022 hPa | - | - | - | - |
| 1777755797 | 3.89° C | 87% | 1022 hPa | - | - | - | - |
| 1777754897 | 3.89° C | 87% | 1022 hPa | - | - | - | - |
| 1777753997 | 3.89° C | 87% | 1022 hPa | - | - | - | - |
| 1777753098 | 2.78° C | 93% | 1022 hPa | - | - | - | - |
| 1777752197 | 2.78° C | 93% | 1022 hPa | - | - | - | - |
| 1777751297 | 3.89° C | 87% | 1022 hPa | - | - | - | - |
| 1777750397 | 3.89° C | 87% | 1022 hPa | - | - | - | - |
| 1777749497 | 3.89° C | 93% | 1022 hPa | - | - | - | - |
| 1777748597 | 3.89° C | 93% | 1022 hPa | - | - | - | - |
| 1777747697 | 5° C | 87% | 1022 hPa | - | - | - | - |
| 1777746797 | 5° C | 87% | 1022 hPa | - | - | - | - |
| 1777745897 | 5° C | 87% | 1021 hPa | - | - | - | - |
| 1777744997 | 5° C | 87% | 1021 hPa | - | - | - | - |
| 1777744097 | 6.11° C | 87% | 1021 hPa | - | - | - | - |
| 1777743197 | 6.11° C | 87% | 1021 hPa | - | - | - | - |
| 1777742297 | 7.22° C | 81% | 1021 hPa | - | - | - | - |
| 1777741397 | 7.22° C | 81% | 1021 hPa | - | - | - | - |
| 1777740494 | 7.78° C | 76% | 1021 hPa | - | - | - | - |
| 1777739597 | 7.78° C | 76% | 1021 hPa | - | - | - | - |
| 1777738697 | 10° C | 62% | 1021 hPa | - | - | - | - |
| 1777737798 | 10° C | 62% | 1021 hPa | - | - | - | - |
| 1777736903 | 10° C | 62% | 1021 hPa | - | - | - | - |
| 1777735998 | 10° C | 62% | 1021 hPa | - | - | - | - |
| 1777735097 | 8.89° C | 71% | 1021 hPa | - | - | - | - |
* Rain since midnight (hover to see other rain measurements)
** Current wind speed in m/s (hover to see current wind gust speed)